sensor_id;sensor_type;location;lat;lon;timestamp;temperature;humidity
55634;DHT22;41504;53.162;6.788;2023-02-28T00:01:12;4.70;87.50
55634;DHT22;41504;53.162;6.788;2023-02-28T00:03:38;4.60;87.50
55634;DHT22;41504;53.162;6.788;2023-02-28T00:06:05;4.60;87.60
55634;DHT22;41504;53.162;6.788;2023-02-28T00:08:31;4.60;87.60
55634;DHT22;41504;53.162;6.788;2023-02-28T00:11:04;4.70;87.80
55634;DHT22;41504;53.162;6.788;2023-02-28T00:13:30;4.70;87.80
55634;DHT22;41504;53.162;6.788;2023-02-28T00:16:15;4.70;87.60
55634;DHT22;41504;53.162;6.788;2023-02-28T00:18:41;4.70;87.70
55634;DHT22;41504;53.162;6.788;2023-02-28T00:21:07;4.80;87.90
55634;DHT22;41504;53.162;6.788;2023-02-28T00:23:33;4.70;87.60
55634;DHT22;41504;53.162;6.788;2023-02-28T00:26:00;4.80;87.60
55634;DHT22;41504;53.162;6.788;2023-02-28T00:28:25;4.70;87.60
55634;DHT22;41504;53.162;6.788;2023-02-28T00:30:54;4.70;87.70
55634;DHT22;41504;53.162;6.788;2023-02-28T00:33:20;4.70;88.10
55634;DHT22;41504;53.162;6.788;2023-02-28T00:35:46;4.70;88.00
55634;DHT22;41504;53.162;6.788;2023-02-28T00:38:13;4.70;88.50
55634;DHT22;41504;53.162;6.788;2023-02-28T00:40:39;4.70;88.10
55634;DHT22;41504;53.162;6.788;2023-02-28T00:43:04;4.70;88.40
55634;DHT22;41504;53.162;6.788;2023-02-28T00:45:30;4.60;88.50
55634;DHT22;41504;53.162;6.788;2023-02-28T00:47:56;4.60;88.70
55634;DHT22;41504;53.162;6.788;2023-02-28T00:50:22;4.50;88.70
55634;DHT22;41504;53.162;6.788;2023-02-28T00:52:47;4.50;88.80
55634;DHT22;41504;53.162;6.788;2023-02-28T00:55:13;4.60;89.20
55634;DHT22;41504;53.162;6.788;2023-02-28T00:57:39;4.50;89.20
55634;DHT22;41504;53.162;6.788;2023-02-28T01:00:06;4.40;89.40
55634;DHT22;41504;53.162;6.788;2023-02-28T01:02:32;4.40;89.40
55634;DHT22;41504;53.162;6.788;2023-02-28T01:04:58;4.40;89.50
55634;DHT22;41504;53.162;6.788;2023-02-28T01:07:24;4.50;89.50
55634;DHT22;41504;53.162;6.788;2023-02-28T01:09:49;4.50;89.40
55634;DHT22;41504;53.162;6.788;2023-02-28T01:12:19;4.60;89.50
55634;DHT22;41504;53.162;6.788;2023-02-28T01:14:44;4.60;89.30
55634;DHT22;41504;53.162;6.788;2023-02-28T01:17:10;4.60;89.10
55634;DHT22;41504;53.162;6.788;2023-02-28T01:19:36;4.70;89.10
55634;DHT22;41504;53.162;6.788;2023-02-28T01:22:06;4.70;88.90
55634;DHT22;41504;53.162;6.788;2023-02-28T01:24:32;4.70;89.10
55634;DHT22;41504;53.162;6.788;2023-02-28T01:26:57;4.70;89.10
55634;DHT22;41504;53.162;6.788;2023-02-28T01:29:23;4.80;89.20
55634;DHT22;41504;53.162;6.788;2023-02-28T01:31:49;4.80;89.10
55634;DHT22;41504;53.162;6.788;2023-02-28T01:34:15;4.80;89.10
55634;DHT22;41504;53.162;6.788;2023-02-28T01:36:40;4.80;89.10
55634;DHT22;41504;53.162;6.788;2023-02-28T01:39:06;4.80;89.30
55634;DHT22;41504;53.162;6.788;2023-02-28T01:41:34;4.80;89.40
55634;DHT22;41504;53.162;6.788;2023-02-28T01:44:54;4.80;89.20
55634;DHT22;41504;53.162;6.788;2023-02-28T01:46:52;4.80;89.50
55634;DHT22;41504;53.162;6.788;2023-02-28T01:49:18;4.70;89.60
55634;DHT22;41504;53.162;6.788;2023-02-28T01:51:54;4.70;89.70
55634;DHT22;41504;53.162;6.788;2023-02-28T01:54:28;4.70;89.70
55634;DHT22;41504;53.162;6.788;2023-02-28T01:56:59;4.70;89.90
55634;DHT22;41504;53.162;6.788;2023-02-28T01:59:36;4.70;90.00
55634;DHT22;41504;53.162;6.788;2023-02-28T02:02:04;4.70;89.90
55634;DHT22;41504;53.162;6.788;2023-02-28T02:04:37;4.80;90.00
55634;DHT22;41504;53.162;6.788;2023-02-28T02:07:04;4.80;90.00
55634;DHT22;41504;53.162;6.788;2023-02-28T02:09:30;4.80;90.00
55634;DHT22;41504;53.162;6.788;2023-02-28T02:11:56;4.80;90.10
55634;DHT22;41504;53.162;6.788;2023-02-28T02:14:40;4.70;90.00
55634;DHT22;41504;53.162;6.788;2023-02-28T02:17:24;4.80;90.10
55634;DHT22;41504;53.162;6.788;2023-02-28T02:25:53;4.70;90.20
55634;DHT22;41504;53.162;6.788;2023-02-28T02:34:07;4.60;90.30
55634;DHT22;41504;53.162;6.788;2023-02-28T02:36:45;4.60;90.30
55634;DHT22;41504;53.162;6.788;2023-02-28T02:39:38;4.60;90.40
55634;DHT22;41504;53.162;6.788;2023-02-28T02:42:13;4.60;90.40
55634;DHT22;41504;53.162;6.788;2023-02-28T02:44:46;4.60;90.40
55634;DHT22;41504;53.162;6.788;2023-02-28T02:47:20;4.60;90.50
55634;DHT22;41504;53.162;6.788;2023-02-28T02:49:50;4.60;90.60
55634;DHT22;41504;53.162;6.788;2023-02-28T02:52:23;4.60;90.60
55634;DHT22;41504;53.162;6.788;2023-02-28T02:54:52;4.60;90.60
55634;DHT22;41504;53.162;6.788;2023-02-28T02:57:50;4.50;90.60
55634;DHT22;41504;53.162;6.788;2023-02-28T03:00:20;4.50;90.60
55634;DHT22;41504;53.162;6.788;2023-02-28T03:02:48;4.50;90.70
55634;DHT22;41504;53.162;6.788;2023-02-28T03:05:26;4.60;90.80
55634;DHT22;41504;53.162;6.788;2023-02-28T03:07:54;4.40;90.80
55634;DHT22;41504;53.162;6.788;2023-02-28T03:10:35;4.40;90.90
55634;DHT22;41504;53.162;6.788;2023-02-28T03:24:43;4.40;91.10
55634;DHT22;41504;53.162;6.788;2023-02-28T03:27:24;4.40;91.10
55634;DHT22;41504;53.162;6.788;2023-02-28T03:29:58;4.40;91.10
55634;DHT22;41504;53.162;6.788;2023-02-28T03:32:29;4.30;91.20
55634;DHT22;41504;53.162;6.788;2023-02-28T03:35:10;4.40;91.30
55634;DHT22;41504;53.162;6.788;2023-02-28T03:37:39;4.40;91.20
55634;DHT22;41504;53.162;6.788;2023-02-28T03:40:14;4.40;91.30
55634;DHT22;41504;53.162;6.788;2023-02-28T03:42:44;4.40;91.30
55634;DHT22;41504;53.162;6.788;2023-02-28T03:45:35;4.40;91.30
55634;DHT22;41504;53.162;6.788;2023-02-28T03:48:28;4.40;91.30
55634;DHT22;41504;53.162;6.788;2023-02-28T03:50:58;4.40;91.30
55634;DHT22;41504;53.162;6.788;2023-02-28T03:53:42;4.30;91.30
55634;DHT22;41504;53.162;6.788;2023-02-28T03:56:31;4.30;91.60
55634;DHT22;41504;53.162;6.788;2023-02-28T03:59:12;4.20;91.30
55634;DHT22;41504;53.162;6.788;2023-02-28T04:01:42;4.20;91.30
55634;DHT22;41504;53.162;6.788;2023-02-28T04:04:09;4.20;91.40
55634;DHT22;41504;53.162;6.788;2023-02-28T04:06:35;4.40;91.40
55634;DHT22;41504;53.162;6.788;2023-02-28T04:09:02;4.20;91.40
55634;DHT22;41504;53.162;6.788;2023-02-28T04:11:39;4.10;91.40
55634;DHT22;41504;53.162;6.788;2023-02-28T04:14:07;4.10;91.50
55634;DHT22;41504;53.162;6.788;2023-02-28T04:16:37;4.10;91.50
55634;DHT22;41504;53.162;6.788;2023-02-28T04:19:04;4.10;91.50
55634;DHT22;41504;53.162;6.788;2023-02-28T04:21:33;4.10;91.50
55634;DHT22;41504;53.162;6.788;2023-02-28T04:23:59;4.00;91.60
55634;DHT22;41504;53.162;6.788;2023-02-28T04:26:33;4.00;91.60
55634;DHT22;41504;53.162;6.788;2023-02-28T04:29:00;3.90;91.70
55634;DHT22;41504;53.162;6.788;2023-02-28T04:31:26;4.00;91.70
55634;DHT22;41504;53.162;6.788;2023-02-28T04:33:52;3.90;91.70
55634;DHT22;41504;53.162;6.788;2023-02-28T04:36:18;3.90;91.70
55634;DHT22;41504;53.162;6.788;2023-02-28T04:38:45;3.80;91.80
55634;DHT22;41504;53.162;6.788;2023-02-28T04:41:12;3.80;91.80
55634;DHT22;41504;53.162;6.788;2023-02-28T04:43:37;3.80;91.90
55634;DHT22;41504;53.162;6.788;2023-02-28T04:46:04;4.00;91.90
55634;DHT22;41504;53.162;6.788;2023-02-28T04:48:33;3.80;91.90
55634;DHT22;41504;53.162;6.788;2023-02-28T04:51:04;3.80;91.90
55634;DHT22;41504;53.162;6.788;2023-02-28T04:53:30;3.80;91.90
55634;DHT22;41504;53.162;6.788;2023-02-28T04:55:57;3.80;92.00
55634;DHT22;41504;53.162;6.788;2023-02-28T04:58:24;3.80;92.00
55634;DHT22;41504;53.162;6.788;2023-02-28T05:00:51;3.80;92.00
55634;DHT22;41504;53.162;6.788;2023-02-28T05:03:17;3.80;92.00
55634;DHT22;41504;53.162;6.788;2023-02-28T05:05:43;3.80;92.00
55634;DHT22;41504;53.162;6.788;2023-02-28T05:08:08;3.70;92.00
55634;DHT22;41504;53.162;6.788;2023-02-28T05:10:35;3.70;92.10
55634;DHT22;41504;53.162;6.788;2023-02-28T05:13:01;3.70;92.10
55634;DHT22;41504;53.162;6.788;2023-02-28T05:15:27;3.70;92.10
55634;DHT22;41504;53.162;6.788;2023-02-28T05:17:52;3.70;92.20
55634;DHT22;41504;53.162;6.788;2023-02-28T05:20:18;3.70;92.20
55634;DHT22;41504;53.162;6.788;2023-02-28T05:22:44;3.70;92.20
55634;DHT22;41504;53.162;6.788;2023-02-28T05:25:16;3.70;92.20
55634;DHT22;41504;53.162;6.788;2023-02-28T05:27:42;3.70;92.30
55634;DHT22;41504;53.162;6.788;2023-02-28T05:30:08;3.70;92.20
55634;DHT22;41504;53.162;6.788;2023-02-28T05:32:37;3.70;92.20
55634;DHT22;41504;53.162;6.788;2023-02-28T05:35:04;3.70;92.30
55634;DHT22;41504;53.162;6.788;2023-02-28T05:37:29;3.70;92.30
55634;DHT22;41504;53.162;6.788;2023-02-28T05:39:55;3.70;92.30
55634;DHT22;41504;53.162;6.788;2023-02-28T05:42:21;3.70;92.30
55634;DHT22;41504;53.162;6.788;2023-02-28T05:44:50;3.70;92.30
55634;DHT22;41504;53.162;6.788;2023-02-28T05:47:15;3.70;92.40
55634;DHT22;41504;53.162;6.788;2023-02-28T05:49:42;3.70;92.40
55634;DHT22;41504;53.162;6.788;2023-02-28T05:52:08;3.70;92.30
55634;DHT22;41504;53.162;6.788;2023-02-28T05:54:33;3.80;92.30
55634;DHT22;41504;53.162;6.788;2023-02-28T05:56:59;3.70;92.40
55634;DHT22;41504;53.162;6.788;2023-02-28T05:59:25;3.70;92.40
55634;DHT22;41504;53.162;6.788;2023-02-28T06:01:51;3.70;92.40
55634;DHT22;41504;53.162;6.788;2023-02-28T06:04:20;3.60;92.40
55634;DHT22;41504;53.162;6.788;2023-02-28T06:06:49;3.70;92.40
55634;DHT22;41504;53.162;6.788;2023-02-28T06:09:16;3.70;92.40
55634;DHT22;41504;53.162;6.788;2023-02-28T06:11:42;3.60;92.30
55634;DHT22;41504;53.162;6.788;2023-02-28T06:14:16;3.60;92.30
55634;DHT22;41504;53.162;6.788;2023-02-28T06:16:43;3.60;92.20
55634;DHT22;41504;53.162;6.788;2023-02-28T06:19:09;3.60;92.30
55634;DHT22;41504;53.162;6.788;2023-02-28T06:21:35;3.50;92.30
55634;DHT22;41504;53.162;6.788;2023-02-28T06:24:02;3.50;92.20
55634;DHT22;41504;53.162;6.788;2023-02-28T06:26:32;3.50;92.20
55634;DHT22;41504;53.162;6.788;2023-02-28T06:28:57;3.50;92.20
55634;DHT22;41504;53.162;6.788;2023-02-28T06:31:23;3.50;92.20
55634;DHT22;41504;53.162;6.788;2023-02-28T06:33:52;3.50;92.20
55634;DHT22;41504;53.162;6.788;2023-02-28T06:36:18;3.70;92.30
55634;DHT22;41504;53.162;6.788;2023-02-28T06:38:44;3.50;92.20
55634;DHT22;41504;53.162;6.788;2023-02-28T06:41:11;3.50;92.30
55634;DHT22;41504;53.162;6.788;2023-02-28T06:43:39;3.50;92.30
55634;DHT22;41504;53.162;6.788;2023-02-28T06:46:07;3.50;92.30
55634;DHT22;41504;53.162;6.788;2023-02-28T06:48:34;3.50;92.30
55634;DHT22;41504;53.162;6.788;2023-02-28T06:51:26;3.50;92.40
55634;DHT22;41504;53.162;6.788;2023-02-28T06:53:52;3.40;92.30
55634;DHT22;41504;53.162;6.788;2023-02-28T06:56:18;3.40;92.30
55634;DHT22;41504;53.162;6.788;2023-02-28T06:58:47;3.40;92.30
55634;DHT22;41504;53.162;6.788;2023-02-28T07:01:14;3.40;92.30
55634;DHT22;41504;53.162;6.788;2023-02-28T07:03:40;3.40;92.20
55634;DHT22;41504;53.162;6.788;2023-02-28T07:06:05;3.40;92.30
55634;DHT22;41504;53.162;6.788;2023-02-28T07:08:31;3.40;92.20
55634;DHT22;41504;53.162;6.788;2023-02-28T07:10:58;3.50;92.30
55634;DHT22;41504;53.162;6.788;2023-02-28T07:13:24;3.40;92.30
55634;DHT22;41504;53.162;6.788;2023-02-28T07:16:01;3.40;92.30
55634;DHT22;41504;53.162;6.788;2023-02-28T07:18:28;3.50;92.30
55634;DHT22;41504;53.162;6.788;2023-02-28T07:20:54;3.50;92.30
55634;DHT22;41504;53.162;6.788;2023-02-28T07:23:20;3.50;92.20
55634;DHT22;41504;53.162;6.788;2023-02-28T07:25:46;3.50;92.20
55634;DHT22;41504;53.162;6.788;2023-02-28T07:28:13;3.50;92.20
55634;DHT22;41504;53.162;6.788;2023-02-28T07:30:39;3.50;92.20
55634;DHT22;41504;53.162;6.788;2023-02-28T07:33:05;3.50;92.20
55634;DHT22;41504;53.162;6.788;2023-02-28T07:35:31;3.50;92.20
55634;DHT22;41504;53.162;6.788;2023-02-28T07:38:00;3.60;92.20
55634;DHT22;41504;53.162;6.788;2023-02-28T07:40:26;3.60;92.20
55634;DHT22;41504;53.162;6.788;2023-02-28T07:42:52;3.60;92.20
55634;DHT22;41504;53.162;6.788;2023-02-28T07:45:18;3.60;92.20
55634;DHT22;41504;53.162;6.788;2023-02-28T07:47:45;3.70;92.20
55634;DHT22;41504;53.162;6.788;2023-02-28T07:50:13;3.60;92.10
55634;DHT22;41504;53.162;6.788;2023-02-28T07:52:39;3.60;92.10
55634;DHT22;41504;53.162;6.788;2023-02-28T07:55:07;3.60;92.10
55634;DHT22;41504;53.162;6.788;2023-02-28T07:57:33;3.70;92.20
55634;DHT22;41504;53.162;6.788;2023-02-28T07:59:58;3.80;92.20
55634;DHT22;41504;53.162;6.788;2023-02-28T08:02:24;3.80;92.10
55634;DHT22;41504;53.162;6.788;2023-02-28T08:04:50;3.80;92.10
55634;DHT22;41504;53.162;6.788;2023-02-28T08:07:17;3.90;92.00
55634;DHT22;41504;53.162;6.788;2023-02-28T08:09:43;4.00;92.10
55634;DHT22;41504;53.162;6.788;2023-02-28T08:12:10;3.90;92.00
55634;DHT22;41504;53.162;6.788;2023-02-28T08:14:36;4.00;91.90
55634;DHT22;41504;53.162;6.788;2023-02-28T08:17:03;4.00;91.90
55634;DHT22;41504;53.162;6.788;2023-02-28T08:19:29;4.10;91.80
55634;DHT22;41504;53.162;6.788;2023-02-28T08:21:55;4.10;91.70
55634;DHT22;41504;53.162;6.788;2023-02-28T08:24:21;4.10;91.60
55634;DHT22;41504;53.162;6.788;2023-02-28T08:26:47;4.00;91.60
55634;DHT22;41504;53.162;6.788;2023-02-28T08:29:13;4.00;91.70
55634;DHT22;41504;53.162;6.788;2023-02-28T08:31:38;4.10;91.70
55634;DHT22;41504;53.162;6.788;2023-02-28T08:34:08;4.30;91.70
55634;DHT22;41504;53.162;6.788;2023-02-28T08:36:34;4.20;91.60
55634;DHT22;41504;53.162;6.788;2023-02-28T08:39:01;4.20;91.50
55634;DHT22;41504;53.162;6.788;2023-02-28T08:41:26;4.30;91.50
55634;DHT22;41504;53.162;6.788;2023-02-28T08:43:52;4.40;91.40
55634;DHT22;41504;53.162;6.788;2023-02-28T08:46:19;4.30;91.30
55634;DHT22;41504;53.162;6.788;2023-02-28T08:48:46;4.40;91.30
55634;DHT22;41504;53.162;6.788;2023-02-28T08:51:18;4.40;91.30
55634;DHT22;41504;53.162;6.788;2023-02-28T08:53:47;4.40;91.20
55634;DHT22;41504;53.162;6.788;2023-02-28T08:56:16;4.50;91.00
55634;DHT22;41504;53.162;6.788;2023-02-28T08:58:46;4.50;91.00
55634;DHT22;41504;53.162;6.788;2023-02-28T09:01:15;4.50;91.00
55634;DHT22;41504;53.162;6.788;2023-02-28T09:03:41;4.60;90.80
55634;DHT22;41504;53.162;6.788;2023-02-28T09:06:11;4.60;90.80
55634;DHT22;41504;53.162;6.788;2023-02-28T09:08:37;4.50;90.80
55634;DHT22;41504;53.162;6.788;2023-02-28T09:11:03;4.60;90.80
55634;DHT22;41504;53.162;6.788;2023-02-28T09:13:29;4.50;90.80
55634;DHT22;41504;53.162;6.788;2023-02-28T09:15:58;4.50;90.90
55634;DHT22;41504;53.162;6.788;2023-02-28T09:18:24;4.70;91.00
55634;DHT22;41504;53.162;6.788;2023-02-28T09:20:50;4.60;90.90
55634;DHT22;41504;53.162;6.788;2023-02-28T09:23:16;4.60;90.90
55634;DHT22;41504;53.162;6.788;2023-02-28T09:25:50;4.60;91.10
55634;DHT22;41504;53.162;6.788;2023-02-28T09:28:16;4.60;90.80
55634;DHT22;41504;53.162;6.788;2023-02-28T09:30:44;4.60;90.80
55634;DHT22;41504;53.162;6.788;2023-02-28T09:33:10;4.70;90.80
55634;DHT22;41504;53.162;6.788;2023-02-28T09:35:36;4.70;90.70
55634;DHT22;41504;53.162;6.788;2023-02-28T09:38:03;4.70;90.60
55634;DHT22;41504;53.162;6.788;2023-02-28T09:40:30;4.70;90.60
55634;DHT22;41504;53.162;6.788;2023-02-28T09:42:57;4.80;90.60
55634;DHT22;41504;53.162;6.788;2023-02-28T09:45:35;4.90;90.60
55634;DHT22;41504;53.162;6.788;2023-02-28T09:48:10;4.90;90.30
55634;DHT22;41504;53.162;6.788;2023-02-28T09:50:43;4.90;90.10
55634;DHT22;41504;53.162;6.788;2023-02-28T09:53:21;4.90;90.10
55634;DHT22;41504;53.162;6.788;2023-02-28T09:55:58;5.00;90.20
55634;DHT22;41504;53.162;6.788;2023-02-28T09:58:32;5.00;90.00
55634;DHT22;41504;53.162;6.788;2023-02-28T10:01:12;5.00;89.40
55634;DHT22;41504;53.162;6.788;2023-02-28T10:04:03;5.10;89.50
55634;DHT22;41504;53.162;6.788;2023-02-28T10:07:00;5.20;89.30
55634;DHT22;41504;53.162;6.788;2023-02-28T10:09:29;5.10;89.30
55634;DHT22;41504;53.162;6.788;2023-02-28T10:12:00;5.10;89.10
55634;DHT22;41504;53.162;6.788;2023-02-28T10:14:30;5.20;88.60
55634;DHT22;41504;53.162;6.788;2023-02-28T10:17:16;5.20;88.50
55634;DHT22;41504;53.162;6.788;2023-02-28T10:22:22;5.30;88.00
55634;DHT22;41504;53.162;6.788;2023-02-28T10:24:55;5.30;87.10
55634;DHT22;41504;53.162;6.788;2023-02-28T10:27:32;5.40;87.20
55634;DHT22;41504;53.162;6.788;2023-02-28T10:30:00;5.40;87.20
55634;DHT22;41504;53.162;6.788;2023-02-28T10:32:29;5.50;86.50
55634;DHT22;41504;53.162;6.788;2023-02-28T10:35:19;5.60;86.40
55634;DHT22;41504;53.162;6.788;2023-02-28T10:37:52;5.60;85.90
55634;DHT22;41504;53.162;6.788;2023-02-28T10:40:27;5.60;86.20
55634;DHT22;41504;53.162;6.788;2023-02-28T10:45:32;5.50;86.30
55634;DHT22;41504;53.162;6.788;2023-02-28T10:55:57;5.80;85.40
55634;DHT22;41504;53.162;6.788;2023-02-28T11:03:57;5.70;84.30
55634;DHT22;41504;53.162;6.788;2023-02-28T11:06:33;5.80;83.20
55634;DHT22;41504;53.162;6.788;2023-02-28T11:09:03;5.80;83.00
55634;DHT22;41504;53.162;6.788;2023-02-28T11:11:31;6.20;83.10
55634;DHT22;41504;53.162;6.788;2023-02-28T11:14:22;5.70;83.00
55634;DHT22;41504;53.162;6.788;2023-02-28T11:16:50;5.90;83.10
55634;DHT22;41504;53.162;6.788;2023-02-28T11:19:30;5.90;83.10
55634;DHT22;41504;53.162;6.788;2023-02-28T11:22:01;6.10;82.70
55634;DHT22;41504;53.162;6.788;2023-02-28T11:24:37;6.20;82.90
55634;DHT22;41504;53.162;6.788;2023-02-28T11:27:06;6.30;82.80
55634;DHT22;41504;53.162;6.788;2023-02-28T11:29:33;6.50;82.70
55634;DHT22;41504;53.162;6.788;2023-02-28T11:32:20;6.70;82.50
55634;DHT22;41504;53.162;6.788;2023-02-28T11:34:53;6.80;82.40
55634;DHT22;41504;53.162;6.788;2023-02-28T11:37:27;6.90;82.10
55634;DHT22;41504;53.162;6.788;2023-02-28T11:39:53;7.00;80.90
55634;DHT22;41504;53.162;6.788;2023-02-28T11:42:32;7.00;80.80
55634;DHT22;41504;53.162;6.788;2023-02-28T11:45:16;7.10;81.10
55634;DHT22;41504;53.162;6.788;2023-02-28T11:47:48;7.10;80.00
55634;DHT22;41504;53.162;6.788;2023-02-28T11:52:56;7.40;80.70
55634;DHT22;41504;53.162;6.788;2023-02-28T11:58:27;7.30;80.70
55634;DHT22;41504;53.162;6.788;2023-02-28T12:06:33;7.60;79.60
55634;DHT22;41504;53.162;6.788;2023-02-28T12:09:44;7.80;79.10
55634;DHT22;41504;53.162;6.788;2023-02-28T12:12:18;7.70;79.00
55634;DHT22;41504;53.162;6.788;2023-02-28T12:15:27;7.80;79.10
55634;DHT22;41504;53.162;6.788;2023-02-28T12:18:06;7.90;78.60
55634;DHT22;41504;53.162;6.788;2023-02-28T12:28:28;8.20;77.30
55634;DHT22;41504;53.162;6.788;2023-02-28T12:31:11;8.20;77.30
55634;DHT22;41504;53.162;6.788;2023-02-28T12:33:43;8.20;77.20
55634;DHT22;41504;53.162;6.788;2023-02-28T12:36:12;8.20;76.40
55634;DHT22;41504;53.162;6.788;2023-02-28T12:38:44;8.20;76.90
55634;DHT22;41504;53.162;6.788;2023-02-28T12:41:18;8.20;76.80
55634;DHT22;41504;53.162;6.788;2023-02-28T12:43:57;8.20;76.60
55634;DHT22;41504;53.162;6.788;2023-02-28T12:46:27;8.30;75.20
55634;DHT22;41504;53.162;6.788;2023-02-28T12:49:00;8.20;74.70
55634;DHT22;41504;53.162;6.788;2023-02-28T12:51:28;8.30;75.60
55634;DHT22;41504;53.162;6.788;2023-02-28T12:54:28;8.40;75.00
55634;DHT22;41504;53.162;6.788;2023-02-28T12:59:59;8.60;74.10
55634;DHT22;41504;53.162;6.788;2023-02-28T13:10:43;8.90;72.90
55634;DHT22;41504;53.162;6.788;2023-02-28T13:13:18;8.90;72.10
55634;DHT22;41504;53.162;6.788;2023-02-28T13:16:20;8.90;70.30
55634;DHT22;41504;53.162;6.788;2023-02-28T13:18:46;8.80;71.40
55634;DHT22;41504;53.162;6.788;2023-02-28T13:21:30;8.80;71.00
55634;DHT22;41504;53.162;6.788;2023-02-28T13:24:08;8.80;64.70
55634;DHT22;41504;53.162;6.788;2023-02-28T13:39:58;9.10;69.00
55634;DHT22;41504;53.162;6.788;2023-02-28T13:47:40;9.00;67.40
55634;DHT22;41504;53.162;6.788;2023-02-28T14:06:34;8.20;70.30
55634;DHT22;41504;53.162;6.788;2023-02-28T14:18:02;9.00;67.40
55634;DHT22;41504;53.162;6.788;2023-02-28T14:20:32;9.20;68.40
55634;DHT22;41504;53.162;6.788;2023-02-28T14:25:58;9.50;68.10
55634;DHT22;41504;53.162;6.788;2023-02-28T14:31:40;9.50;65.90
55634;DHT22;41504;53.162;6.788;2023-02-28T14:34:31;9.50;66.90
55634;DHT22;41504;53.162;6.788;2023-02-28T14:37:02;9.30;64.70
55634;DHT22;41504;53.162;6.788;2023-02-28T14:39:29;8.90;66.50
55634;DHT22;41504;53.162;6.788;2023-02-28T14:44:56;8.70;67.00
55634;DHT22;41504;53.162;6.788;2023-02-28T14:47:23;8.70;67.00
55634;DHT22;41504;53.162;6.788;2023-02-28T14:49:54;8.70;67.10
55634;DHT22;41504;53.162;6.788;2023-02-28T14:52:26;8.80;67.40
55634;DHT22;41504;53.162;6.788;2023-02-28T14:55:05;8.70;67.40
55634;DHT22;41504;53.162;6.788;2023-02-28T15:00:30;8.90;67.40
55634;DHT22;41504;53.162;6.788;2023-02-28T15:02:58;8.90;67.20
55634;DHT22;41504;53.162;6.788;2023-02-28T15:05:33;9.00;67.50
55634;DHT22;41504;53.162;6.788;2023-02-28T15:08:09;9.10;66.80
55634;DHT22;41504;53.162;6.788;2023-02-28T15:10:42;9.10;66.50
55634;DHT22;41504;53.162;6.788;2023-02-28T15:13:11;9.20;66.10
55634;DHT22;41504;53.162;6.788;2023-02-28T15:21:17;9.00;66.40
55634;DHT22;41504;53.162;6.788;2023-02-28T15:23:47;9.00;65.60
55634;DHT22;41504;53.162;6.788;2023-02-28T15:26:21;8.90;65.60
55634;DHT22;41504;53.162;6.788;2023-02-28T15:29:00;8.90;65.80
55634;DHT22;41504;53.162;6.788;2023-02-28T15:31:32;8.90;66.10
55634;DHT22;41504;53.162;6.788;2023-02-28T15:34:04;8.90;66.20
55634;DHT22;41504;53.162;6.788;2023-02-28T15:36:32;8.80;65.60
55634;DHT22;41504;53.162;6.788;2023-02-28T15:39:00;8.70;65.70
55634;DHT22;41504;53.162;6.788;2023-02-28T15:41:31;8.70;66.60
55634;DHT22;41504;53.162;6.788;2023-02-28T15:49:24;8.40;66.50
55634;DHT22;41504;53.162;6.788;2023-02-28T15:51:52;8.30;66.70
55634;DHT22;41504;53.162;6.788;2023-02-28T15:54:27;8.30;66.80
55634;DHT22;41504;53.162;6.788;2023-02-28T15:56:56;8.30;66.60
55634;DHT22;41504;53.162;6.788;2023-02-28T15:59:28;8.30;66.40
55634;DHT22;41504;53.162;6.788;2023-02-28T16:02:16;8.30;66.70
55634;DHT22;41504;53.162;6.788;2023-02-28T16:07:29;8.40;66.70
55634;DHT22;41504;53.162;6.788;2023-02-28T16:09:55;8.20;66.70
55634;DHT22;41504;53.162;6.788;2023-02-28T16:12:25;8.20;66.70
55634;DHT22;41504;53.162;6.788;2023-02-28T16:14:57;8.10;67.00
55634;DHT22;41504;53.162;6.788;2023-02-28T16:17:28;8.10;67.40
55634;DHT22;41504;53.162;6.788;2023-02-28T16:19:54;8.00;67.40
55634;DHT22;41504;53.162;6.788;2023-02-28T16:22:20;8.00;66.90
55634;DHT22;41504;53.162;6.788;2023-02-28T16:24:52;8.00;67.30
55634;DHT22;41504;53.162;6.788;2023-02-28T16:27:19;7.90;67.40
55634;DHT22;41504;53.162;6.788;2023-02-28T16:29:46;7.90;67.60
55634;DHT22;41504;53.162;6.788;2023-02-28T16:32:15;7.80;67.70
55634;DHT22;41504;53.162;6.788;2023-02-28T16:34:43;7.80;68.30
55634;DHT22;41504;53.162;6.788;2023-02-28T16:37:17;7.70;68.80
55634;DHT22;41504;53.162;6.788;2023-02-28T16:39:44;7.70;69.30
55634;DHT22;41504;53.162;6.788;2023-02-28T16:42:22;7.60;69.60
55634;DHT22;41504;53.162;6.788;2023-02-28T16:44:49;7.60;70.10
55634;DHT22;41504;53.162;6.788;2023-02-28T16:47:15;7.50;70.40
55634;DHT22;41504;53.162;6.788;2023-02-28T16:49:41;7.40;70.50
55634;DHT22;41504;53.162;6.788;2023-02-28T16:52:09;7.40;71.10
55634;DHT22;41504;53.162;6.788;2023-02-28T16:54:35;7.30;71.20
55634;DHT22;41504;53.162;6.788;2023-02-28T16:57:01;7.30;71.40
55634;DHT22;41504;53.162;6.788;2023-02-28T16:59:27;7.20;71.60
55634;DHT22;41504;53.162;6.788;2023-02-28T17:01:55;7.20;72.00
55634;DHT22;41504;53.162;6.788;2023-02-28T17:04:26;7.10;72.10
55634;DHT22;41504;53.162;6.788;2023-02-28T17:06:52;7.10;72.40
55634;DHT22;41504;53.162;6.788;2023-02-28T17:09:20;7.10;72.50
55634;DHT22;41504;53.162;6.788;2023-02-28T17:11:46;7.00;72.70
55634;DHT22;41504;53.162;6.788;2023-02-28T17:14:12;6.90;72.50
55634;DHT22;41504;53.162;6.788;2023-02-28T17:16:39;6.90;72.70
55634;DHT22;41504;53.162;6.788;2023-02-28T17:19:06;6.80;72.80
55634;DHT22;41504;53.162;6.788;2023-02-28T17:21:33;6.70;73.00
55634;DHT22;41504;53.162;6.788;2023-02-28T17:23:59;6.70;73.20
55634;DHT22;41504;53.162;6.788;2023-02-28T17:26:25;6.60;73.40
55634;DHT22;41504;53.162;6.788;2023-02-28T17:28:53;6.50;73.60
55634;DHT22;41504;53.162;6.788;2023-02-28T17:31:25;6.50;73.90
55634;DHT22;41504;53.162;6.788;2023-02-28T17:33:51;6.50;74.20
55634;DHT22;41504;53.162;6.788;2023-02-28T17:36:25;6.40;74.30
55634;DHT22;41504;53.162;6.788;2023-02-28T17:38:55;6.40;74.50
55634;DHT22;41504;53.162;6.788;2023-02-28T17:41:21;6.30;74.60
55634;DHT22;41504;53.162;6.788;2023-02-28T17:43:47;6.30;75.00
55634;DHT22;41504;53.162;6.788;2023-02-28T17:46:16;6.20;75.00
55634;DHT22;41504;53.162;6.788;2023-02-28T17:48:44;6.20;75.20
55634;DHT22;41504;53.162;6.788;2023-02-28T17:51:13;6.20;75.40
55634;DHT22;41504;53.162;6.788;2023-02-28T17:53:39;6.10;75.40
55634;DHT22;41504;53.162;6.788;2023-02-28T17:56:10;6.00;75.70
55634;DHT22;41504;53.162;6.788;2023-02-28T17:58:36;5.90;75.90
55634;DHT22;41504;53.162;6.788;2023-02-28T18:01:02;5.90;76.30
55634;DHT22;41504;53.162;6.788;2023-02-28T18:03:27;5.80;76.50
55634;DHT22;41504;53.162;6.788;2023-02-28T18:05:53;5.90;76.70
55634;DHT22;41504;53.162;6.788;2023-02-28T18:08:22;5.80;76.40
55634;DHT22;41504;53.162;6.788;2023-02-28T18:10:48;5.80;76.60
55634;DHT22;41504;53.162;6.788;2023-02-28T18:13:14;5.80;76.80
55634;DHT22;41504;53.162;6.788;2023-02-28T18:15:39;5.70;76.90
55634;DHT22;41504;53.162;6.788;2023-02-28T18:18:05;5.60;77.10
55634;DHT22;41504;53.162;6.788;2023-02-28T18:20:33;5.60;77.20
55634;DHT22;41504;53.162;6.788;2023-02-28T18:22:59;5.50;77.20
55634;DHT22;41504;53.162;6.788;2023-02-28T18:25:24;5.50;77.40